Time;durP1;ratioP1;P1;durP2;ratioP2;P2;SDS_P1;SDS_P2;PMS_P1;PMS_P2;Temp;Humidity;BMP_temperature;BMP_pressure;BME280_temperature;BME280_humidity;BME280_pressure;Samples;Min_cycle;Max_cycle;Signal;HPM_P1;HPM_P2
2023/07/21 00:02:19;;;;;;;3.72;2.50;;;16.60;99.90;;;;;;5049586;28;20519;-85
2023/07/21 00:04:45;;;;;;;4.60;2.42;;;16.80;99.90;;;;;;5050491;28;20020;-86
2023/07/21 00:07:10;;;;;;;5.80;2.72;;;16.70;99.90;;;;;;5050364;28;20384;-84
2023/07/21 00:09:36;;;;;;;4.85;2.70;;;16.70;99.90;;;;;;5051357;28;20029;-86
2023/07/21 00:12:03;;;;;;;2.83;2.30;;;16.70;99.90;;;;;;5050420;28;20021;-85
2023/07/21 00:14:29;;;;;;;2.78;2.30;;;16.90;99.90;;;;;;5050423;28;20029;-86
2023/07/21 00:16:55;;;;;;;2.33;2.13;;;16.90;99.90;;;;;;5050198;28;20033;-86
2023/07/21 00:19:21;;;;;;;5.55;2.55;;;16.70;99.90;;;;;;5049087;28;20078;-87
2023/07/21 00:21:47;;;;;;;3.63;2.67;;;16.90;99.90;;;;;;5050086;28;20104;-86
2023/07/21 00:24:13;;;;;;;4.38;2.55;;;16.80;99.90;;;;;;5049894;28;20048;-86
2023/07/21 00:26:38;;;;;;;3.90;2.30;;;16.70;99.90;;;;;;5050777;28;20025;-86
2023/07/21 00:29:04;;;;;;;4.03;2.40;;;16.80;99.90;;;;;;5048578;28;20021;-86
2023/07/21 00:31:31;;;;;;;3.58;2.60;;;16.90;99.90;;;;;;5050085;28;20303;-86
2023/07/21 00:33:57;;;;;;;3.55;2.42;;;17.00;99.90;;;;;;5057423;28;20021;-85
2023/07/21 00:36:23;;;;;;;5.47;2.20;;;16.90;99.90;;;;;;5056549;28;20492;-86
2023/07/21 00:38:49;;;;;;;6.35;2.65;;;17.10;99.90;;;;;;5048419;28;20033;-86
2023/07/21 00:41:15;;;;;;;4.50;2.50;;;17.00;99.90;;;;;;5047983;28;20550;-86
2023/07/21 00:43:41;;;;;;;4.47;2.78;;;17.10;99.90;;;;;;5032570;28;20021;-86
2023/07/21 00:46:07;;;;;;;3.10;2.45;;;17.00;99.90;;;;;;5044199;28;20037;-86
2023/07/21 00:48:33;;;;;;;3.70;2.55;;;17.00;99.90;;;;;;5028779;28;20061;-86
2023/07/21 00:50:59;;;;;;;6.55;2.50;;;17.00;99.90;;;;;;5043207;28;20070;-86
2023/07/21 00:53:26;;;;;;;4.25;2.97;;;17.00;99.90;;;;;;5036132;28;20550;-86
2023/07/21 00:55:52;;;;;;;4.90;2.75;;;17.00;99.90;;;;;;5042301;28;20029;-86
2023/07/21 00:58:18;;;;;;;4.22;2.70;;;16.90;99.90;;;;;;5031676;28;20021;-86
2023/07/21 01:00:46;;;;;;;3.83;2.85;;;17.00;99.90;;;;;;5047147;28;20037;-86
2023/07/21 01:03:14;;;;;;;3.22;2.70;;;17.10;99.90;;;;;;5049307;28;20017;-86
2023/07/21 01:05:42;;;;;;;5.63;2.60;;;17.00;99.90;;;;;;5043445;28;20034;-86
2023/07/21 01:08:10;;;;;;;4.85;2.65;;;16.90;99.90;;;;;;5038279;28;20167;-86
2023/07/21 01:10:38;;;;;;;4.32;2.90;;;16.90;99.90;;;;;;5030988;28;20061;-86
2023/07/21 01:13:04;;;;;;;4.50;2.90;;;16.80;99.90;;;;;;5028865;28;20029;-85
2023/07/21 01:15:33;;;;;;;4.40;2.78;;;16.60;99.90;;;;;;5048777;28;20473;-86
2023/07/21 01:17:59;;;;;;;3.15;2.65;;;16.60;99.90;;;;;;5048836;28;20059;-86
2023/07/21 01:20:27;;;;;;;4.03;2.70;;;16.70;99.90;;;;;;5050501;28;20493;-86
2023/07/21 01:23:00;;;;;;;6.13;2.85;;;16.50;99.90;;;;;;5029049;28;20040;-85
2023/07/21 01:25:28;;;;;;;4.32;2.78;;;16.60;99.90;;;;;;5035044;28;20025;-85
2023/07/21 01:27:54;;;;;;;;;;;16.60;99.90;;;;;;5047444;28;20017;-84
2023/07/21 01:30:21;;;;;;;8.80;3.30;;;16.50;99.90;;;;;;5047891;28;20007;-85
2023/07/21 01:32:49;;;;;;;6.03;2.88;;;16.50;99.90;;;;;;5036328;28;20444;-85
2023/07/21 01:35:17;;;;;;;3.90;2.88;;;16.60;99.90;;;;;;5029157;28;20013;-85
2023/07/21 01:37:45;;;;;;;4.50;3.20;;;16.60;99.90;;;;;;5038245;28;20044;-85
2023/07/21 01:40:13;;;;;;;8.75;3.28;;;16.70;99.90;;;;;;5047321;28;20112;-85
2023/07/21 01:42:41;;;;;;;5.13;3.53;;;16.80;99.90;;;;;;5046895;28;20459;-85
2023/07/21 01:45:07;;;;;;;5.87;3.67;;;16.80;99.90;;;;;;5028523;28;20037;-85
2023/07/21 01:47:34;;;;;;;5.38;3.60;;;16.60;99.90;;;;;;5035044;28;20555;-84
2023/07/21 01:50:01;;;;;;;5.25;3.60;;;16.70;99.90;;;;;;5040846;28;20029;-86
2023/07/21 01:52:28;;;;;;;4.57;3.80;;;16.80;99.90;;;;;;5033772;28;20044;-86
2023/07/21 01:55:10;;;;;;;5.78;4.25;;;16.90;99.90;;;;;;5044600;28;20408;-86
2023/07/21 01:57:40;;;;;;;5.95;3.85;;;16.70;99.90;;;;;;5047547;28;20583;-86
2023/07/21 02:00:10;;;;;;;5.20;4.00;;;16.80;99.90;;;;;;5046563;28;20449;-86
2023/07/21 02:02:37;;;;;;;8.82;4.18;;;16.80;99.90;;;;;;5050309;28;20352;-86
2023/07/21 02:05:05;;;;;;;4.20;3.72;;;16.70;99.90;;;;;;5039192;28;20037;-86
2023/07/21 02:07:31;;;;;;;8.18;4.07;;;16.80;99.90;;;;;;5048272;28;20036;-85
2023/07/21 02:09:58;;;;;;;7.10;3.85;;;16.80;99.90;;;;;;5051243;28;20021;-86
2023/07/21 02:12:24;;;;;;;6.53;4.10;;;16.80;99.90;;;;;;5044652;28;20040;-86
2023/07/21 02:14:50;;;;;;;5.85;4.13;;;16.70;99.90;;;;;;5032092;28;20033;-85
2023/07/21 02:17:16;;;;;;;8.02;4.38;;;16.80;99.90;;;;;;5033497;28;20052;-85
2023/07/21 02:19:41;;;;;;;8.65;3.92;;;16.60;99.90;;;;;;5032045;28;20022;-86
2023/07/21 02:22:07;;;;;;;9.45;4.20;;;16.60;99.90;;;;;;5045498;28;20485;-86
2023/07/21 02:24:33;;;;;;;6.15;4.38;;;16.60;99.90;;;;;;5032579;28;20474;-86
2023/07/21 02:26:59;;;;;;;4.75;3.78;;;16.60;99.90;;;;;;5047612;28;20082;-86
2023/07/21 02:29:25;;;;;;;5.85;4.18;;;16.60;99.90;;;;;;5032035;28;20028;-86
2023/07/21 02:31:50;;;;;;;10.20;4.13;;;16.70;99.90;;;;;;5038064;28;20021;-86
2023/07/21 02:34:16;;;;;;;9.13;3.95;;;16.60;99.90;;;;;;5048470;28;20505;-86
2023/07/21 02:36:42;;;;;;;6.10;4.22;;;16.60;99.90;;;;;;5049717;28;20075;-86
2023/07/21 02:39:07;;;;;;;5.30;4.13;;;16.50;99.90;;;;;;5051076;28;20533;-85
2023/07/21 02:41:33;;;;;;;5.32;3.78;;;16.50;99.90;;;;;;5049873;28;20041;-86
2023/07/21 02:43:59;;;;;;;9.90;3.95;;;16.60;99.90;;;;;;5050969;28;20021;-86
2023/07/21 02:46:25;;;;;;;6.10;3.88;;;16.60;99.90;;;;;;5050911;28;20040;-86
2023/07/21 02:48:50;;;;;;;7.15;3.90;;;16.60;99.90;;;;;;5050785;28;20025;-86
2023/07/21 02:51:16;;;;;;;4.65;3.75;;;16.60;99.90;;;;;;5050666;28;20044;-86
2023/07/21 02:53:42;;;;;;;5.85;3.70;;;16.70;99.90;;;;;;5050851;28;20072;-86
2023/07/21 02:56:08;;;;;;;4.13;3.65;;;16.70;99.90;;;;;;5050850;28;20036;-86
2023/07/21 02:58:34;;;;;;;6.78;3.80;;;16.70;99.90;;;;;;5050455;28;20473;-86
2023/07/21 03:01:03;;;;;;;5.60;3.97;;;16.60;99.90;;;;;;5045286;28;20040;-85
2023/07/21 03:03:29;;;;;;;4.75;3.63;;;16.60;99.90;;;;;;5038690;28;20020;-86
2023/07/21 03:05:54;;;;;;;4.50;3.63;;;16.60;99.90;;;;;;5031039;28;20037;-86
2023/07/21 03:08:26;;;;;;;5.72;3.92;;;16.70;99.90;;;;;;5049351;28;20028;-86
2023/07/21 03:10:58;;;;;;;5.68;4.13;;;16.70;99.90;;;;;;5031420;28;20100;-85
2023/07/21 03:13:24;;;;;;;8.38;4.05;;;16.60;99.90;;;;;;5036219;28;20075;-87
2023/07/21 03:15:51;;;;;;;5.57;4.10;;;16.50;99.90;;;;;;5041445;28;20452;-85
2023/07/21 03:18:17;;;;;;;6.88;4.45;;;16.50;99.90;;;;;;5043125;28;20466;-85
2023/07/21 03:20:43;;;;;;;6.43;4.10;;;16.60;99.90;;;;;;5046451;28;20044;-86
2023/07/21 03:23:09;;;;;;;7.22;4.10;;;16.60;99.90;;;;;;5030759;28;20545;-86
2023/07/21 03:25:42;;;;;;;6.82;3.72;;;16.60;99.90;;;;;;5040840;28;20117;-86
2023/07/21 03:28:07;;;;;;;7.57;3.97;;;16.60;99.90;;;;;;5048761;28;20025;-86
2023/07/21 03:30:33;;;;;;;4.38;3.60;;;16.60;99.90;;;;;;5055080;28;20038;-85
2023/07/21 03:32:59;;;;;;;8.18;3.92;;;16.70;99.90;;;;;;5038138;28;20091;-84
2023/07/21 03:35:24;;;;;;;5.38;3.80;;;16.50;99.90;;;;;;5038614;28;20026;-86
2023/07/21 03:37:50;;;;;;;4.85;3.85;;;16.40;99.90;;;;;;5037834;28;20036;-86
2023/07/21 03:40:16;;;;;;;4.68;3.85;;;16.40;99.90;;;;;;5037448;28;20042;-88
2023/07/21 03:42:41;;;;;;;5.80;4.22;;;16.40;99.90;;;;;;5036110;28;20029;-88
2023/07/21 03:45:07;;;;;;;7.35;3.80;;;16.40;99.90;;;;;;5048618;28;20040;-87
2023/07/21 03:47:36;;;;;;;5.43;4.05;;;16.40;99.90;;;;;;5046079;28;20058;-87
2023/07/21 03:50:02;;;;;;;5.72;4.20;;;16.30;99.90;;;;;;5043430;28;20025;-87
2023/07/21 03:52:28;;;;;;;5.55;3.95;;;16.30;99.90;;;;;;5045996;28;20044;-86
2023/07/21 03:54:55;;;;;;;5.82;4.40;;;16.10;99.90;;;;;;5046497;28;20481;-86
2023/07/21 03:57:22;;;;;;;6.97;4.10;;;16.00;99.90;;;;;;5034024;28;20025;-87
2023/07/21 03:59:49;;;;;;;4.38;3.60;;;16.00;99.90;;;;;;5050449;28;20036;-87
2023/07/21 04:02:17;;;;;;;6.43;4.15;;;15.90;99.90;;;;;;5046058;28;20033;-87
2023/07/21 04:04:44;;;;;;;;;;;15.80;99.90;;;;;;5030375;28;20508;-86
2023/07/21 04:07:11;;;;;;;5.90;4.03;;;15.70;99.90;;;;;;5031045;28;19913;-88
2023/07/21 04:09:37;;;;;;;24.60;5.22;;;15.70;99.90;;;;;;5035700;28;20021;-86
2023/07/21 04:12:03;;;;;;;5.85;4.25;;;15.70;99.90;;;;;;5044285;28;20417;-89
2023/07/21 04:14:30;;;;;;;6.75;3.78;;;15.80;99.90;;;;;;5035316;28;20037;-85
2023/07/21 04:16:55;;;;;;;6.07;4.00;;;15.80;99.90;;;;;;5031959;28;20108;-85
2023/07/21 04:19:21;;;;;;;8.18;4.80;;;15.90;99.90;;;;;;5034615;28;20544;-86
2023/07/21 04:21:49;;;;;;;7.28;4.10;;;15.90;99.90;;;;;;5037920;28;20500;-85
2023/07/21 04:24:15;;;;;;;6.78;4.32;;;15.80;99.90;;;;;;5037939;28;20028;-86
2023/07/21 04:26:40;;;;;;;7.85;4.60;;;15.80;99.90;;;;;;5034562;28;20029;-85
2023/07/21 04:29:06;;;;;;;11.65;4.47;;;15.70;99.90;;;;;;5029277;28;20024;-85
2023/07/21 04:31:32;;;;;;;8.15;4.18;;;15.70;99.90;;;;;;5030092;28;20096;-85
2023/07/21 04:33:58;;;;;;;5.45;4.32;;;15.70;99.90;;;;;;5034604;28;20021;-86
2023/07/21 04:36:24;;;;;;;9.48;4.63;;;15.70;99.90;;;;;;5031598;28;20044;-86
2023/07/21 04:38:50;;;;;;;6.78;4.40;;;15.50;99.90;;;;;;5030185;28;20025;-85
2023/07/21 04:41:16;;;;;;;7.72;4.80;;;15.40;99.90;;;;;;5044613;28;20041;-88
2023/07/21 04:43:43;;;;;;;7.68;5.10;;;15.50;99.90;;;;;;5048478;28;20530;-86
2023/07/21 04:46:10;;;;;;;9.98;4.63;;;15.50;99.90;;;;;;5049852;28;20033;-87
2023/07/21 04:48:36;;;;;;;7.95;4.93;;;15.40;99.90;;;;;;5049287;28;20473;-88
2023/07/21 04:51:03;;;;;;;8.77;4.88;;;15.40;99.90;;;;;;5048795;28;20017;-86
2023/07/21 04:53:29;;;;;;;11.77;5.33;;;15.30;99.90;;;;;;5050844;28;20031;-88
2023/07/21 04:55:57;;;;;;;7.95;4.70;;;15.30;99.90;;;;;;5049746;28;20280;-87
2023/07/21 04:58:22;;;;;;;13.37;5.17;;;15.30;99.90;;;;;;5050569;28;20104;-86
2023/07/21 05:00:48;;;;;;;6.90;4.50;;;15.40;99.90;;;;;;5047499;28;20109;-87
2023/07/21 05:03:13;;;;;;;6.68;4.90;;;15.40;99.90;;;;;;5048937;28;20043;-87
2023/07/21 05:05:39;;;;;;;7.85;5.43;;;15.40;99.90;;;;;;5049055;28;20033;-87
2023/07/21 05:08:05;;;;;;;8.65;5.15;;;15.40;99.90;;;;;;5048405;28;20433;-85
2023/07/21 05:10:31;;;;;;;7.25;5.20;;;15.40;99.90;;;;;;5047852;28;20085;-87
2023/07/21 05:12:57;;;;;;;8.52;5.00;;;15.40;99.90;;;;;;5047965;28;20052;-86
2023/07/21 05:15:24;;;;;;;6.68;4.65;;;15.40;99.90;;;;;;5049352;28;20087;-86
2023/07/21 05:17:50;;;;;;;8.68;5.28;;;15.30;99.90;;;;;;5049203;28;20048;-87
2023/07/21 05:20:16;;;;;;;8.57;5.43;;;15.30;99.90;;;;;;5048398;28;20434;-86
2023/07/21 05:22:41;;;;;;;9.80;6.18;;;15.30;99.90;;;;;;5049268;28;20028;-87
2023/07/21 05:25:11;;;;;;;8.35;5.10;;;15.30;99.90;;;;;;5047740;28;20017;-87
2023/07/21 05:27:37;;;;;;;6.07;5.07;;;15.40;99.90;;;;;;5050030;28;20063;-86
2023/07/21 05:30:03;;;;;;;9.07;5.28;;;15.40;99.90;;;;;;5050772;28;20102;-87
2023/07/21 05:32:29;;;;;;;9.07;5.95;;;15.30;99.90;;;;;;5049223;28;20028;-86
2023/07/21 05:34:55;;;;;;;11.27;5.80;;;15.40;99.90;;;;;;5049572;28;20021;-86
2023/07/21 05:37:20;;;;;;;12.07;5.60;;;15.40;99.90;;;;;;5047681;28;20116;-87
2023/07/21 05:39:46;;;;;;;9.30;5.97;;;15.50;99.90;;;;;;5048701;28;20033;-86
2023/07/21 05:42:12;;;;;;;13.70;6.00;;;15.50;99.90;;;;;;5039720;28;20056;-87
2023/07/21 05:44:38;;;;;;;10.15;5.93;;;15.70;99.90;;;;;;5045762;28;20487;-86
2023/07/21 05:47:04;;;;;;;10.57;5.93;;;15.60;99.90;;;;;;5048917;28;20058;-85
2023/07/21 05:49:29;;;;;;;11.13;6.45;;;15.70;99.90;;;;;;5048426;28;20025;-86
2023/07/21 05:51:55;;;;;;;8.70;6.68;;;15.60;99.90;;;;;;5049530;28;20032;-85
2023/07/21 05:54:21;;;;;;;13.90;7.03;;;15.60;99.90;;;;;;5048865;28;20056;-88
2023/07/21 05:56:46;;;;;;;9.38;6.13;;;15.70;99.90;;;;;;5047701;28;20033;-85
2023/07/21 05:59:12;;;;;;;8.80;6.05;;;15.70;99.90;;;;;;5047348;28;20082;-85
2023/07/21 06:01:38;;;;;;;10.45;6.38;;;15.70;99.90;;;;;;5048352;28;20033;-86
2023/07/21 06:04:05;;;;;;;9.82;6.15;;;15.70;99.90;;;;;;5046178;28;20045;-82
2023/07/21 06:06:31;;;;;;;11.70;5.95;;;15.80;99.90;;;;;;5046621;28;20033;-85
2023/07/21 06:08:57;;;;;;;12.80;6.05;;;15.80;99.90;;;;;;5049051;28;20091;-85
2023/07/21 06:11:23;;;;;;;10.02;6.68;;;15.80;99.90;;;;;;5047723;28;20485;-85
2023/07/21 06:13:49;;;;;;;7.95;6.20;;;15.80;99.90;;;;;;5047687;28;20057;-85
2023/07/21 06:16:15;;;;;;;8.75;6.35;;;15.90;99.90;;;;;;5046914;28;20025;-84
2023/07/21 06:18:42;;;;;;;8.38;6.05;;;16.00;99.90;;;;;;5042522;28;20492;-85
2023/07/21 06:21:11;;;;;;;9.00;6.00;;;16.10;99.90;;;;;;5043616;28;20116;-86
2023/07/21 06:23:37;;;;;;;10.23;6.28;;;16.10;99.90;;;;;;5047100;28;20035;-87
2023/07/21 06:26:03;;;;;;;12.82;7.25;;;16.10;99.90;;;;;;5048600;28;20028;-85
2023/07/21 06:28:29;;;;;;;12.45;6.05;;;16.20;99.90;;;;;;5048587;28;20025;-85
2023/07/21 06:30:55;;;;;;;11.63;6.03;;;16.30;99.90;;;;;;5046900;28;20171;-84
2023/07/21 06:33:20;;;;;;;11.70;6.72;;;16.30;99.90;;;;;;5046111;28;20340;-86
2023/07/21 06:35:46;;;;;;;10.73;6.13;;;16.40;99.90;;;;;;5047007;28;20078;-85
2023/07/21 06:38:11;;;;;;;11.65;6.32;;;16.50;99.90;;;;;;5048323;28;20055;-85
2023/07/21 06:40:37;;;;;;;9.75;6.32;;;16.50;99.90;;;;;;5045514;28;20044;-85
2023/07/21 06:43:03;;;;;;;12.10;6.25;;;16.50;99.90;;;;;;5044045;28;20481;-85
2023/07/21 06:45:28;;;;;;;10.00;6.30;;;16.60;99.90;;;;;;5046681;28;20036;-87
2023/07/21 06:47:54;;;;;;;8.48;5.75;;;16.70;99.90;;;;;;5049605;28;20033;-87
2023/07/21 06:50:20;;;;;;;10.20;6.28;;;16.70;99.90;;;;;;5051955;28;20032;-86
2023/07/21 06:52:46;;;;;;;9.20;6.20;;;16.90;99.90;;;;;;5051923;28;20035;-86
2023/07/21 06:55:11;;;;;;;13.35;6.40;;;17.00;99.90;;;;;;5050062;28;20016;-86
2023/07/21 06:57:37;;;;;;;9.50;5.65;;;17.00;99.90;;;;;;5050255;28;20029;-85
2023/07/21 07:00:05;;;;;;;8.63;5.72;;;17.00;99.90;;;;;;5049930;28;20139;-86
2023/07/21 07:02:31;;;;;;;12.80;5.70;;;17.20;99.90;;;;;;5050855;28;20086;-89
2023/07/21 07:04:56;;;;;;;9.27;5.85;;;17.20;99.90;;;;;;5049464;28;20025;-88
2023/07/21 07:07:22;;;;;;;13.10;5.95;;;17.20;99.90;;;;;;5051503;28;20292;-86
2023/07/21 07:09:48;;;;;;;11.48;6.38;;;17.20;99.90;;;;;;5051585;28;20021;-88
2023/07/21 07:12:13;;;;;;;10.40;6.20;;;17.30;99.90;;;;;;5051136;28;20109;-86
2023/07/21 07:14:39;;;;;;;12.95;6.07;;;17.30;99.90;;;;;;5051535;28;20087;-86
2023/07/21 07:17:05;;;;;;;12.40;6.47;;;17.30;99.90;;;;;;5049164;28;20033;-87
2023/07/21 07:19:30;;;;;;;13.40;5.75;;;17.40;99.90;;;;;;5052256;28;20029;-86
2023/07/21 07:21:56;;;;;;;7.80;5.25;;;17.60;99.90;;;;;;5050791;28;20033;-87
2023/07/21 07:24:22;;;;;;;13.50;5.50;;;17.60;99.90;;;;;;5051305;28;20061;-87
2023/07/21 07:26:47;;;;;;;14.40;5.55;;;17.70;99.90;;;;;;5049209;28;20071;-87
2023/07/21 07:29:15;;;;;;;10.48;5.93;;;17.80;99.90;;;;;;5049502;28;20025;-85
2023/07/21 07:31:41;;;;;;;10.38;4.93;;;17.80;99.90;;;;;;5050921;28;20053;-86
2023/07/21 07:34:08;;;;;;;11.95;5.35;;;17.90;99.90;;;;;;5049792;28;20075;-86
2023/07/21 07:36:34;;;;;;;8.10;5.78;;;18.00;99.90;;;;;;5049190;28;20762;-87
2023/07/21 07:39:00;;;;;;;9.05;4.75;;;18.10;99.90;;;;;;5050616;28;20443;-85
2023/07/21 07:41:25;;;;;;;9.68;4.40;;;18.00;99.90;;;;;;5050800;28;20066;-86
2023/07/21 07:43:51;;;;;;;7.82;4.53;;;18.10;99.90;;;;;;5050512;28;20098;-86
2023/07/21 07:46:17;;;;;;;10.68;4.30;;;18.10;99.90;;;;;;5048369;28;20041;-87
2023/07/21 07:48:44;;;;;;;10.32;4.90;;;18.20;99.90;;;;;;5050408;28;20068;-86
2023/07/21 07:51:10;;;;;;;6.28;3.67;;;18.20;99.90;;;;;;5050794;28;20032;-86
2023/07/21 07:53:36;;;;;;;7.63;3.45;;;18.30;99.90;;;;;;5031116;28;20076;-86
2023/07/21 07:56:03;;;;;;;6.53;4.00;;;18.30;99.90;;;;;;5045799;28;20512;-88
2023/07/21 07:58:29;;;;;;;10.30;4.20;;;18.40;99.90;;;;;;5047398;28;20021;-87
2023/07/21 08:00:57;;;;;;;7.68;3.80;;;18.40;99.90;;;;;;5048605;28;20059;-87
2023/07/21 08:03:23;;;;;;;8.35;4.30;;;18.50;99.90;;;;;;5048318;28;20025;-86
2023/07/21 08:05:50;;;;;;;6.63;3.83;;;18.50;99.90;;;;;;5049488;28;20052;-88
2023/07/21 08:08:21;;;;;;;8.47;3.70;;;18.50;99.90;;;;;;5049462;28;20028;-86
2023/07/21 08:10:47;;;;;;;6.18;3.55;;;18.50;99.90;;;;;;5041078;28;20033;-86
2023/07/21 08:13:13;;;;;;;7.82;3.30;;;18.60;99.90;;;;;;5049619;28;20032;-86
2023/07/21 08:15:40;;;;;;;6.10;3.58;;;18.80;99.90;;;;;;5048244;28;20040;-85
2023/07/21 08:18:06;;;;;;;8.02;3.25;;;18.80;99.90;;;;;;5050201;28;20021;-86
2023/07/21 08:20:32;;;;;;;5.68;3.33;;;18.90;99.90;;;;;;5050979;28;20033;-85
2023/07/21 08:22:57;;;;;;;4.22;3.38;;;18.80;99.90;;;;;;5049513;28;20021;-85
2023/07/21 08:25:24;;;;;;;5.68;3.25;;;18.70;99.90;;;;;;5047976;28;20443;-86
2023/07/21 08:27:50;;;;;;;5.97;3.60;;;18.80;99.90;;;;;;5049250;28;20575;-86
2023/07/21 08:30:15;;;;;;;11.35;3.75;;;18.80;99.90;;;;;;5043909;28;20104;-85
2023/07/21 08:32:42;;;;;;;7.05;3.65;;;18.90;99.90;;;;;;5036122;28;20026;-88
2023/07/21 08:35:10;;;;;;;4.80;3.00;;;19.00;99.90;;;;;;5033495;28;20485;-86
2023/07/21 08:37:36;;;;;;;4.10;3.28;;;19.30;99.90;;;;;;5049302;28;20024;-85
2023/07/21 08:40:03;;;;;;;3.35;2.85;;;19.30;99.90;;;;;;5049455;28;20037;-86
2023/07/21 08:42:30;;;;;;;4.85;3.10;;;19.40;99.90;;;;;;5049717;28;20132;-84
2023/07/21 08:44:57;;;;;;;6.05;3.10;;;19.20;99.90;;;;;;5044650;28;20056;-86
2023/07/21 08:47:26;;;;;;;7.97;3.65;;;19.20;99.90;;;;;;5049749;28;20033;-86
2023/07/21 08:49:51;;;;;;;5.03;3.13;;;19.50;99.90;;;;;;5047333;28;20040;-83
2023/07/21 08:52:17;;;;;;;5.60;3.40;;;19.60;99.90;;;;;;5048468;28;20493;-85
2023/07/21 08:54:43;;;;;;;6.03;3.15;;;19.50;99.90;;;;;;5047810;28;20108;-85
2023/07/21 08:57:11;;;;;;;9.15;3.35;;;19.50;99.90;;;;;;5045100;28;20029;-84
2023/07/21 08:59:38;;;;;;;5.13;3.25;;;19.40;99.90;;;;;;5029003;28;20013;-85
2023/07/21 09:02:03;;;;;;;8.23;3.20;;;19.50;99.90;;;;;;5048383;28;20038;-84
2023/07/21 09:04:29;;;;;;;10.57;3.40;;;19.80;99.90;;;;;;5049116;28;20037;-88
2023/07/21 09:06:59;;;;;;;5.07;3.40;;;20.00;99.90;;;;;;5031181;28;20030;-86
2023/07/21 09:09:35;;;;;;;4.72;3.00;;;20.20;99.90;;;;;;5029434;28;20385;-87
2023/07/21 09:12:03;;;;;;;4.85;3.05;;;20.30;99.90;;;;;;5043675;28;20091;-87
2023/07/21 09:14:40;;;;;;;4.03;2.83;;;20.40;99.90;;;;;;5049104;28;20486;-87
2023/07/21 09:17:07;;;;;;;4.03;2.80;;;20.40;99.90;;;;;;5033256;28;20025;-85
2023/07/21 09:19:38;;;;;;;4.90;2.60;;;20.40;99.90;;;;;;5029408;28;20064;-85
2023/07/21 09:22:04;;;;;;;3.80;2.65;;;20.40;99.90;;;;;;5031819;28;20041;-89
2023/07/21 09:24:30;;;;;;;5.60;2.58;;;20.40;99.90;;;;;;5059931;28;20035;-86
2023/07/21 09:27:15;;;;;;;4.35;2.58;;;20.20;99.90;;;;;;5061650;28;20035;-89
2023/07/21 09:29:42;;;;;;;8.55;3.13;;;20.00;99.90;;;;;;5047803;28;20552;-90
2023/07/21 09:32:18;;;;;;;5.38;2.80;;;20.00;99.90;;;;;;5050930;28;20032;-88
2023/07/21 09:35:04;;;;;;;4.32;2.95;;;20.10;99.90;;;;;;5053953;28;20025;-89
2023/07/21 09:37:32;;;;;;;2.53;2.28;;;20.20;99.90;;;;;;5048971;28;20140;-89
2023/07/21 09:40:10;;;;;;;10.15;2.63;;;20.10;99.90;;;;;;5047919;28;20032;-90
2023/07/21 09:42:42;;;;;;;4.85;2.55;;;20.30;99.90;;;;;;5049926;28;20071;-90
2023/07/21 09:45:08;;;;;;;3.25;2.35;;;20.30;99.90;;;;;;5070333;28;20070;-90
2023/07/21 09:47:37;;;;;;;4.97;2.50;;;20.30;99.90;;;;;;5060142;28;20025;-91
2023/07/21 09:50:03;;;;;;;8.75;2.30;;;20.60;99.90;;;;;;5046132;28;20074;-87
2023/07/21 09:52:37;;;;;;;3.63;2.85;;;20.90;99.90;;;;;;5043185;28;20436;-89
2023/07/21 09:55:13;;;;;;;4.25;2.22;;;20.90;99.90;;;;;;5048268;28;20040;-87
2023/07/21 09:57:45;;;;;;;4.85;2.70;;;20.30;99.90;;;;;;5050662;28;20061;-84
2023/07/21 10:00:13;;;;;;;4.75;2.20;;;20.20;99.90;;;;;;5053080;28;20035;-87
2023/07/21 10:02:42;;;;;;;;;;;20.10;99.90;;;;;;5042061;28;20036;-87
2023/07/21 10:05:11;;;;;;;3.75;2.22;;;20.30;99.90;;;;;;5048054;28;19905;-89
2023/07/21 10:07:39;;;;;;;6.75;2.67;;;20.40;99.90;;;;;;5049377;28;20033;-85
2023/07/21 10:10:06;;;;;;;2.30;2.10;;;20.60;99.90;;;;;;5047260;28;20024;-85
2023/07/21 10:12:41;;;;;;;4.85;2.20;;;20.70;99.90;;;;;;5047527;28;20249;-85
2023/07/21 10:15:15;;;;;;;4.35;2.35;;;20.80;99.90;;;;;;5049379;28;20036;-86
2023/07/21 10:17:58;;;;;;;3.22;2.20;;;20.60;99.90;;;;;;5029591;28;20405;-90
2023/07/21 10:20:51;;;;;;;3.38;2.05;;;20.80;99.90;;;;;;5067368;28;20060;-86
2023/07/21 10:23:38;;;;;;;3.08;2.22;;;21.00;99.90;;;;;;5061439;28;20179;-86
2023/07/21 10:26:08;;;;;;;3.55;2.00;;;20.90;99.90;;;;;;5054467;28;20040;-87
2023/07/21 10:28:42;;;;;;;4.50;2.60;;;20.80;99.90;;;;;;5053400;28;20037;-85
2023/07/21 10:31:23;;;;;;;6.35;2.70;;;20.70;99.90;;;;;;5053609;28;20025;-88
2023/07/21 10:34:06;;;;;;;5.45;2.25;;;20.50;99.90;;;;;;5061436;28;20077;-87
2023/07/21 10:36:48;;;;;;;3.17;2.35;;;20.60;99.90;;;;;;5071394;28;20111;-88
2023/07/21 10:39:16;;;;;;;4.20;2.35;;;20.70;99.90;;;;;;5059942;28;20029;-85
2023/07/21 10:41:43;;;;;;;3.95;2.28;;;20.60;99.90;;;;;;5064434;28;20033;-89
2023/07/21 10:44:10;;;;;;;5.30;2.50;;;20.70;99.90;;;;;;5073086;28;20112;-89
2023/07/21 10:46:37;;;;;;;3.15;2.10;;;21.10;99.90;;;;;;5072132;28;20020;-87
2023/07/21 10:49:03;;;;;;;3.20;2.20;;;21.40;99.90;;;;;;5072140;28;20021;-87
2023/07/21 10:51:29;;;;;;;6.65;2.53;;;21.50;99.90;;;;;;5069784;28;20131;-88
2023/07/21 10:53:55;;;;;;;3.88;2.30;;;21.50;99.90;;;;;;5050594;28;20083;-88
2023/07/21 10:56:22;;;;;;;3.38;2.30;;;21.50;99.90;;;;;;5052143;28;20050;-91
2023/07/21 10:58:48;;;;;;;3.60;2.30;;;21.50;99.90;;;;;;5062932;28;20542;-88
2023/07/21 11:01:18;;;;;;;3.35;2.00;;;21.40;99.90;;;;;;5072438;28;20568;-86
2023/07/21 11:03:48;;;;;;;3.58;2.30;;;21.30;99.90;;;;;;5056322;28;20025;-87
2023/07/21 11:06:15;;;;;;;4.60;2.35;;;21.20;99.90;;;;;;5052624;28;20368;-86
2023/07/21 11:08:40;;;;;;;5.30;2.47;;;21.30;99.90;;;;;;5052422;28;20043;-84
2023/07/21 11:11:08;;;;;;;5.28;2.58;;;21.20;99.90;;;;;;5051883;28;20029;-85
2023/07/21 11:13:34;;;;;;;5.45;2.38;;;21.30;99.90;;;;;;5050982;28;20025;-85
2023/07/21 11:16:00;;;;;;;2.75;2.45;;;21.20;99.90;;;;;;5049603;28;20117;-88
2023/07/21 11:18:28;;;;;;;5.82;2.60;;;21.30;99.90;;;;;;5051586;28;20382;-86
2023/07/21 11:20:54;;;;;;;4.70;2.60;;;21.20;99.90;;;;;;5045155;28;20029;-89
2023/07/21 11:23:26;;;;;;;4.55;2.47;;;21.30;99.90;;;;;;5049614;28;20029;-89
2023/07/21 11:26:06;;;;;;;7.05;2.53;;;21.50;99.90;;;;;;5049769;28;20029;-88
2023/07/21 11:28:33;;;;;;;5.97;2.35;;;21.50;99.90;;;;;;5050884;28;20017;-88
2023/07/21 11:31:00;;;;;;;3.03;2.50;;;21.70;99.90;;;;;;5048626;28;20033;-88
2023/07/21 11:33:48;;;;;;;5.60;2.58;;;21.80;99.90;;;;;;5059874;28;20488;-87
2023/07/21 11:36:23;;;;;;;3.97;2.58;;;21.80;99.90;;;;;;5058613;28;20028;-87
2023/07/21 11:38:56;;;;;;;2.88;2.40;;;21.80;99.90;;;;;;5050690;28;20029;-87
2023/07/21 11:41:39;;;;;;;2.53;2.33;;;21.90;99.90;;;;;;5068044;28;20045;-86
2023/07/21 11:44:11;;;;;;;4.45;2.45;;;21.80;99.90;;;;;;5049428;28;20036;-93
2023/07/21 11:46:40;;;;;;;4.03;2.30;;;22.10;99.90;;;;;;5049673;28;20178;-88
2023/07/21 11:49:10;;;;;;;4.22;2.78;;;22.30;99.90;;;;;;5050848;28;20029;-87
2023/07/21 11:51:46;;;;;;;6.47;2.80;;;22.20;99.90;;;;;;5044653;28;20661;-85
2023/07/21 11:54:19;;;;;;;4.22;2.55;;;21.50;99.90;;;;;;5049717;28;20029;-85
2023/07/21 11:56:45;;;;;;;3.15;2.45;;;21.20;99.90;;;;;;5031068;28;20025;-91
2023/07/21 11:59:11;;;;;;;6.40;2.60;;;21.40;99.90;;;;;;5050685;28;20021;-87
2023/07/21 12:01:38;;;;;;;3.83;2.63;;;21.80;99.90;;;;;;5050390;28;20037;-86
2023/07/21 12:04:04;;;;;;;6.60;2.50;;;22.20;99.90;;;;;;5050580;28;20108;-87
2023/07/21 12:06:30;;;;;;;3.00;2.33;;;22.10;99.90;;;;;;5058144;28;20037;-86
2023/07/21 12:08:56;;;;;;;5.22;2.53;;;21.90;99.90;;;;;;5050232;28;20036;-87
2023/07/21 12:11:21;;;;;;;2.85;2.30;;;21.70;99.90;;;;;;5061118;28;20072;-86
2023/07/21 12:13:47;;;;;;;4.13;2.35;;;21.60;99.90;;;;;;5068619;28;20032;-84
2023/07/21 12:16:13;;;;;;;3.47;2.45;;;21.90;99.90;;;;;;5049506;28;20120;-89
2023/07/21 12:18:40;;;;;;;4.43;2.53;;;22.10;99.90;;;;;;5060488;28;20485;-85
2023/07/21 12:21:09;;;;;;;3.20;2.40;;;22.10;99.90;;;;;;5053042;28;20102;-85
2023/07/21 12:23:36;;;;;;;3.33;2.40;;;22.10;99.90;;;;;;5049949;28;20525;-86
2023/07/21 12:26:02;;;;;;;4.60;2.53;;;22.10;99.90;;;;;;5048475;28;20059;-86
2023/07/21 12:28:28;;;;;;;4.95;2.70;;;22.10;99.90;;;;;;5054483;28;20522;-87
2023/07/21 12:30:53;;;;;;;4.47;2.55;;;22.00;99.90;;;;;;5069927;28;20444;-92
2023/07/21 12:33:19;;;;;;;5.60;2.72;;;22.10;99.90;;;;;;5046610;28;20033;-86
2023/07/21 12:35:46;;;;;;;2.90;2.30;;;22.30;99.90;;;;;;5039345;28;20028;-85
2023/07/21 12:38:12;;;;;;;7.03;3.10;;;22.30;99.90;;;;;;5040796;28;20032;-87
2023/07/21 12:40:37;;;;;;;3.70;2.47;;;22.50;99.90;;;;;;5044960;28;20123;-86
2023/07/21 12:43:05;;;;;;;3.85;2.42;;;22.50;99.90;;;;;;5049725;28;20528;-84
2023/07/21 12:45:31;;;;;;;5.53;2.50;;;22.30;99.90;;;;;;5029242;28;20032;-85
2023/07/21 12:47:57;;;;;;;2.95;1.92;;;21.90;99.90;;;;;;5044376;28;20397;-86